createdAt,value
2023-10-12T00:00:54.628Z,29.88
2023-10-12T00:03:27.398Z,29.88
2023-10-12T00:05:58.124Z,29.89
2023-10-12T00:08:32.723Z,29.93
2023-10-12T00:11:08.723Z,29.96
2023-10-12T00:13:44.581Z,29.99
2023-10-12T00:16:14.904Z,30.06
2023-10-12T00:18:47.813Z,30.10
2023-10-12T00:21:27.921Z,30.06
2023-10-12T00:23:59.314Z,30.10
2023-10-12T00:26:32.907Z,30.07
2023-10-12T00:29:02.898Z,30.17
2023-10-12T00:31:33.312Z,30.26
2023-10-12T00:34:04.750Z,30.28
2023-10-12T00:36:39.160Z,30.38
2023-10-12T00:39:13.237Z,30.59
2023-10-12T00:41:46.734Z,30.64
2023-10-12T00:44:22.037Z,30.64
2023-10-12T00:47:00.763Z,30.68
2023-10-12T00:49:31.623Z,30.76
2023-10-12T00:52:10.968Z,30.78
2023-10-12T00:54:41.552Z,30.85
2023-10-12T00:57:12.458Z,30.94
2023-10-12T00:59:45.657Z,30.96
2023-10-12T01:02:17.436Z,30.90
2023-10-12T01:04:51.875Z,30.85
2023-10-12T01:07:27.274Z,30.82
2023-10-12T01:10:07.925Z,30.79
2023-10-12T01:12:37.889Z,30.74
2023-10-12T01:15:13.161Z,30.74
2023-10-12T01:17:43.420Z,30.70
2023-10-12T01:20:17.395Z,30.65
2023-10-12T01:22:49.316Z,30.69
2023-10-12T01:25:22.646Z,30.59
2023-10-12T01:27:57.291Z,30.64
2023-10-12T01:30:29.989Z,30.63
2023-10-12T01:33:04.957Z,30.64
2023-10-12T01:35:35.935Z,30.62
2023-10-12T01:38:07.215Z,30.65
2023-10-12T01:40:47.011Z,30.65
2023-10-12T01:43:24.505Z,30.68
2023-10-12T01:46:02.954Z,30.71
2023-10-12T01:48:35.810Z,30.70
2023-10-12T01:51:16.938Z,30.76
2023-10-12T01:53:51.959Z,30.84
2023-10-12T01:56:21.793Z,30.83
2023-10-12T01:58:53.509Z,30.82
2023-10-12T02:01:26.656Z,30.82
2023-10-12T02:03:58.472Z,30.76
2023-10-12T02:06:31.174Z,30.75
2023-10-12T02:09:17.638Z,30.69
2023-10-12T02:11:48.242Z,30.69
2023-10-12T02:14:34.518Z,30.73
2023-10-12T02:17:11.160Z,30.68
2023-10-12T02:19:44.337Z,30.69
2023-10-12T02:22:21.232Z,30.70
2023-10-12T02:24:53.919Z,30.67
2023-10-12T02:27:26.227Z,30.69
2023-10-12T02:29:58.419Z,30.74
2023-10-12T02:32:28.326Z,30.73
2023-10-12T02:35:02.059Z,30.79
2023-10-12T02:37:33.435Z,30.78
2023-10-12T02:40:03.686Z,30.91
2023-10-12T02:42:45.793Z,31.00
2023-10-12T02:45:15.640Z,31.05
2023-10-12T02:47:48.020Z,31.10
2023-10-12T02:50:24.464Z,31.17
2023-10-12T02:52:54.424Z,31.23
2023-10-12T02:55:25.761Z,31.25
2023-10-12T02:57:58.224Z,31.29
2023-10-12T03:00:46.686Z,31.28
2023-10-12T03:03:25.876Z,31.28
2023-10-12T03:06:17.303Z,31.34
2023-10-12T03:09:03.199Z,31.38
2023-10-12T03:11:36.295Z,31.41
2023-10-12T03:14:18.428Z,31.51
2023-10-12T03:16:50.023Z,31.59
2023-10-12T03:19:23.192Z,31.66
2023-10-12T03:22:06.138Z,31.71
2023-10-12T03:24:46.307Z,31.77
2023-10-12T03:27:16.240Z,31.75
2023-10-12T03:30:03.171Z,31.77
2023-10-12T03:32:34.054Z,31.88
2023-10-12T03:35:07.052Z,31.92
2023-10-12T03:37:47.316Z,31.96
2023-10-12T03:40:45.828Z,31.90
2023-10-12T03:43:28.169Z,31.92
2023-10-12T03:46:00.706Z,32.01
2023-10-12T03:48:56.429Z,32.01
2023-10-12T03:51:28.798Z,32.09
2023-10-12T03:53:59.085Z,32.16
2023-10-12T03:56:38.998Z,32.17
2023-10-12T03:59:09.332Z,32.16
2023-10-12T04:01:43.341Z,32.13
2023-10-12T04:04:19.403Z,32.15
2023-10-12T04:07:08.013Z,32.09
2023-10-12T04:09:53.589Z,32.08
2023-10-12T04:12:32.146Z,32.04
2023-10-12T04:15:07.679Z,31.98
2023-10-12T04:17:49.934Z,32.02
2023-10-12T04:20:24.768Z,32.03
2023-10-12T04:23:26.519Z,32.01
2023-10-12T04:26:10.943Z,32.01
2023-10-12T04:28:41.278Z,31.99
2023-10-12T04:31:11.754Z,31.99
2023-10-12T04:33:41.885Z,31.98
2023-10-12T04:36:24.262Z,32.00
2023-10-12T04:39:13.058Z,32.01
2023-10-12T04:41:48.644Z,32.06
2023-10-12T04:44:27.614Z,32.04
2023-10-12T04:47:08.551Z,32.06
2023-10-12T04:49:41.228Z,32.11
2023-10-12T04:52:16.844Z,32.17
2023-10-12T04:55:06.989Z,32.16
2023-10-12T04:57:40.067Z,32.36
2023-10-12T05:00:49.301Z,32.49
2023-10-12T05:03:27.654Z,32.54
2023-10-12T05:06:06.143Z,32.69
2023-10-12T05:08:37.404Z,32.86
2023-10-12T05:11:09.942Z,33.04
2023-10-12T05:13:45.656Z,33.07
2023-10-12T05:16:16.885Z,33.15
2023-10-12T05:18:52.495Z,33.10
2023-10-12T05:21:23.840Z,33.15
2023-10-12T05:23:53.734Z,33.21
2023-10-12T05:26:27.831Z,33.27
2023-10-12T05:29:15.757Z,33.26
2023-10-12T05:31:51.731Z,33.37
2023-10-12T05:34:34.617Z,33.51
2023-10-12T05:37:30.518Z,33.61
2023-10-12T05:40:02.121Z,33.62
2023-10-12T05:42:35.731Z,33.74
2023-10-12T05:45:29.582Z,33.80
2023-10-12T05:47:59.754Z,33.98
2023-10-12T05:50:33.191Z,34.15
2023-10-12T05:53:05.368Z,34.16
2023-10-12T05:55:36.294Z,34.16
2023-10-12T05:58:13.367Z,34.22
2023-10-12T06:00:46.918Z,34.16
2023-10-12T06:03:21.858Z,34.04
2023-10-12T06:05:54.079Z,34.01
2023-10-12T06:08:27.420Z,33.88
2023-10-12T06:10:57.319Z,33.88
2023-10-12T06:13:34.462Z,33.85
2023-10-12T06:16:04.829Z,33.69
2023-10-12T06:18:39.774Z,33.64
2023-10-12T06:21:09.845Z,33.57
2023-10-12T06:23:41.726Z,33.52
2023-10-12T06:26:30.444Z,33.53
2023-10-12T06:29:04.457Z,33.57
2023-10-12T06:31:36.053Z,33.50
2023-10-12T06:34:13.040Z,33.38
2023-10-12T06:36:43.014Z,33.35
2023-10-12T06:39:18.586Z,33.36
2023-10-12T06:41:48.974Z,33.42
2023-10-12T06:44:28.141Z,33.46
2023-10-12T06:47:19.131Z,33.48
2023-10-12T06:49:48.940Z,33.40
2023-10-12T06:52:21.303Z,33.39
2023-10-12T06:55:01.491Z,33.31
2023-10-12T06:57:34.066Z,33.31
2023-10-12T07:00:07.063Z,33.27
2023-10-12T07:02:37.451Z,33.32
2023-10-12T07:05:09.872Z,33.33
2023-10-12T07:07:43.319Z,33.30
2023-10-12T07:10:14.032Z,33.23
2023-10-12T07:12:51.598Z,33.24
2023-10-12T07:15:28.227Z,33.21
2023-10-12T07:17:58.252Z,33.18
2023-10-12T07:20:48.893Z,33.17
2023-10-12T07:23:22.590Z,33.11
2023-10-12T07:25:55.842Z,33.06
2023-10-12T07:28:34.434Z,33.15
2023-10-12T07:31:20.040Z,33.10
2023-10-12T07:33:55.972Z,33.11
2023-10-12T07:36:38.373Z,33.13
2023-10-12T07:39:26.991Z,33.10
2023-10-12T07:42:02.782Z,33.09
2023-10-12T07:44:43.409Z,33.10
2023-10-12T07:47:20.319Z,33.04
2023-10-12T07:49:53.778Z,32.99
2023-10-12T07:52:26.259Z,32.97
2023-10-12T07:54:59.496Z,32.93
2023-10-12T07:57:32.702Z,32.92
2023-10-12T08:00:22.842Z,32.90
2023-10-12T08:02:52.787Z,32.86
2023-10-12T08:05:26.747Z,32.83
2023-10-12T08:08:00.851Z,32.85
2023-10-12T08:10:44.242Z,32.81
2023-10-12T08:13:26.845Z,32.81
2023-10-12T08:16:01.264Z,32.80
2023-10-12T08:18:53.268Z,32.76
2023-10-12T08:21:31.958Z,32.76
2023-10-12T08:24:11.690Z,32.75
2023-10-12T08:26:45.286Z,32.71
2023-10-12T08:29:25.734Z,32.67
2023-10-12T08:32:10.469Z,32.67
2023-10-12T08:34:40.759Z,32.66
2023-10-12T08:37:21.528Z,32.62
2023-10-12T08:40:00.695Z,32.61
2023-10-12T08:42:34.127Z,32.58
2023-10-12T08:45:14.923Z,32.53
2023-10-12T08:47:51.700Z,32.55
2023-10-12T08:50:21.628Z,32.54
2023-10-12T08:52:55.766Z,32.57
2023-10-12T08:55:27.040Z,32.49
2023-10-12T08:58:09.306Z,32.48
2023-10-12T09:00:39.802Z,32.46
2023-10-12T09:03:26.925Z,32.45
2023-10-12T09:05:57.458Z,32.39
2023-10-12T09:08:30.840Z,32.40
2023-10-12T09:11:04.936Z,32.42
2023-10-12T09:13:39.144Z,32.40
2023-10-12T09:16:13.649Z,32.39
2023-10-12T09:18:46.101Z,32.35
2023-10-12T09:21:23.810Z,32.30
2023-10-12T09:24:16.097Z,32.29
2023-10-12T09:27:02.576Z,32.32
2023-10-12T09:29:44.468Z,32.25
2023-10-12T09:32:20.260Z,32.29
2023-10-12T09:35:08.834Z,32.25
2023-10-12T09:37:56.352Z,32.21
2023-10-12T09:40:37.367Z,32.25
2023-10-12T09:43:19.790Z,32.19
2023-10-12T09:45:57.597Z,32.22
2023-10-12T09:48:33.195Z,32.21
2023-10-12T09:51:08.724Z,32.21
2023-10-12T09:53:45.312Z,32.20
2023-10-12T09:56:18.558Z,32.19
2023-10-12T09:58:55.019Z,32.17
2023-10-12T10:01:46.309Z,32.15
2023-10-12T10:04:28.803Z,32.15
2023-10-12T10:07:17.768Z,32.15
2023-10-12T10:09:49.121Z,32.15
2023-10-12T10:12:22.911Z,32.11
2023-10-12T10:14:56.475Z,32.13
2023-10-12T10:17:38.738Z,32.10
2023-10-12T10:20:30.748Z,32.07
2023-10-12T10:23:03.861Z,32.09
2023-10-12T10:25:52.838Z,32.15
2023-10-12T10:28:27.218Z,32.16
2023-10-12T10:31:01.851Z,32.20
2023-10-12T10:33:40.840Z,32.17
2023-10-12T10:36:30.701Z,32.16
2023-10-12T10:39:16.771Z,32.16
2023-10-12T10:41:53.203Z,32.13
2023-10-12T10:44:24.603Z,32.14
2023-10-12T10:47:02.817Z,32.12
2023-10-12T10:49:36.171Z,32.07
2023-10-12T10:52:08.770Z,32.10
2023-10-12T10:54:42.022Z,32.01
2023-10-12T10:57:19.229Z,32.03
2023-10-12T10:59:49.199Z,31.99
2023-10-12T11:02:23.310Z,31.99
2023-10-12T11:05:02.239Z,31.96
2023-10-12T11:07:35.433Z,31.99
2023-10-12T11:10:05.662Z,31.95
2023-10-12T11:12:40.326Z,31.96
2023-10-12T11:15:11.812Z,31.95
2023-10-12T11:17:51.629Z,31.95
2023-10-12T11:20:40.942Z,31.98
2023-10-12T11:23:12.442Z,31.95
2023-10-12T11:25:43.368Z,31.95
2023-10-12T11:28:25.215Z,31.95
2023-10-12T11:31:04.419Z,31.94
2023-10-12T11:33:35.486Z,31.91
2023-10-12T11:36:12.081Z,31.91
2023-10-12T11:38:42.014Z,31.91
2023-10-12T11:41:18.588Z,31.93
2023-10-12T11:43:54.959Z,31.90
2023-10-12T11:46:28.293Z,31.87
2023-10-12T11:49:10.603Z,31.92
2023-10-12T11:51:44.173Z,31.90
2023-10-12T11:54:22.984Z,31.91
2023-10-12T11:56:53.840Z,31.91
2023-10-12T11:59:33.219Z,31.87
2023-10-12T12:02:10.342Z,31.87
2023-10-12T12:04:53.495Z,31.87
2023-10-12T12:07:32.025Z,31.86
2023-10-12T12:10:03.669Z,31.83
2023-10-12T12:12:33.580Z,31.77
2023-10-12T12:15:06.509Z,31.79
2023-10-12T12:17:37.302Z,31.75
2023-10-12T12:20:23.247Z,31.73
2023-10-12T12:22:59.518Z,31.77
2023-10-12T12:25:36.080Z,31.74
2023-10-12T12:28:06.857Z,31.77
2023-10-12T12:33:21.895Z,31.71
2023-10-12T12:36:15.400Z,31.71
2023-10-12T12:38:45.785Z,31.74
2023-10-12T12:41:21.711Z,31.69
2023-10-12T12:43:52.656Z,31.69
2023-10-12T12:46:23.142Z,31.61
2023-10-12T12:48:53.492Z,31.61
2023-10-12T12:51:24.734Z,31.58
2023-10-12T12:53:55.190Z,31.69
2023-10-12T12:56:28.730Z,31.72
2023-10-12T12:58:58.953Z,31.72
2023-10-12T13:01:30.881Z,31.72
2023-10-12T13:04:03.496Z,31.70
2023-10-12T13:06:36.801Z,31.63
2023-10-12T13:09:07.154Z,31.67
2023-10-12T13:11:37.132Z,31.64
2023-10-12T13:14:10.804Z,31.58
2023-10-12T13:16:42.665Z,31.56
2023-10-12T13:19:13.697Z,31.60
2023-10-12T13:21:44.452Z,31.61
2023-10-12T13:24:14.895Z,31.57
2023-10-12T13:26:47.473Z,31.53
2023-10-12T13:29:17.336Z,31.53
2023-10-12T13:31:49.461Z,31.50
2023-10-12T13:34:20.095Z,31.52
2023-10-12T13:36:50.359Z,31.45
2023-10-12T13:39:20.398Z,31.47
2023-10-12T13:41:50.372Z,31.41
2023-10-12T13:44:27.705Z,31.39
2023-10-12T13:46:57.857Z,31.40
2023-10-12T13:49:28.350Z,31.38
2023-10-12T13:51:58.200Z,31.35
2023-10-12T13:54:35.011Z,31.32
2023-10-12T13:57:09.830Z,31.29
2023-10-12T13:59:39.710Z,31.30
2023-10-12T14:02:12.333Z,31.27
2023-10-12T14:04:43.219Z,31.23
2023-10-12T14:07:14.557Z,31.24
2023-10-12T14:09:44.374Z,31.23
2023-10-12T14:12:14.586Z,31.22
2023-10-12T14:14:44.492Z,31.17
2023-10-12T14:17:14.251Z,30.62
2023-10-12T14:19:44.870Z,30.66
2023-10-12T14:22:15.228Z,30.89
2023-10-12T14:24:49.083Z,30.97
2023-10-12T14:27:23.034Z,31.02
2023-10-12T14:29:57.366Z,31.02
2023-10-12T14:32:28.048Z,31.01
2023-10-12T14:34:58.021Z,30.97
2023-10-12T14:37:28.580Z,30.99
2023-10-12T14:39:58.484Z,30.98
2023-10-12T14:42:29.018Z,30.98
2023-10-12T14:44:58.848Z,30.98
2023-10-12T14:47:28.454Z,30.98
2023-10-12T14:49:58.815Z,30.96
2023-10-12T14:52:34.892Z,30.94
2023-10-12T14:55:08.515Z,30.94
2023-10-12T14:57:40.137Z,30.92
2023-10-12T15:03:28.811Z,30.87
2023-10-12T15:06:02.185Z,30.85
2023-10-12T15:08:32.389Z,30.85
2023-10-12T15:11:02.296Z,30.84
2023-10-12T15:13:32.101Z,30.83
2023-10-12T15:16:02.133Z,30.78
2023-10-12T15:18:31.957Z,30.78
2023-10-12T15:21:12.009Z,30.78
2023-10-12T15:23:44.495Z,30.76
2023-10-12T15:26:15.775Z,30.79
2023-10-12T15:28:49.315Z,30.76
2023-10-12T15:31:24.342Z,30.76
2023-10-12T15:33:54.527Z,30.81
2023-10-12T15:36:25.765Z,30.75
2023-10-12T15:38:55.891Z,30.78
2023-10-12T15:41:27.145Z,30.77
2023-10-12T15:43:57.876Z,30.77
2023-10-12T15:46:27.804Z,30.75
2023-10-12T15:48:59.651Z,30.76
2023-10-12T15:51:30.274Z,30.72
2023-10-12T15:54:00.759Z,30.72
2023-10-12T15:56:30.710Z,30.71
2023-10-12T15:59:03.680Z,30.72
2023-10-12T16:01:36.656Z,30.71
2023-10-12T16:04:10.309Z,30.70
2023-10-12T16:06:40.347Z,30.70
2023-10-12T16:09:14.676Z,30.68
2023-10-12T16:11:45.010Z,30.70
2023-10-12T16:14:20.049Z,30.67
2023-10-12T16:16:53.363Z,30.66
2023-10-12T16:19:23.824Z,30.65
2023-10-12T16:21:53.761Z,30.65
2023-10-12T16:24:23.556Z,30.64
2023-10-12T16:26:53.420Z,30.65
2023-10-12T16:29:23.926Z,30.66
2023-10-12T16:31:55.320Z,30.64
2023-10-12T16:34:25.354Z,30.65
2023-10-12T16:37:00.007Z,30.64
2023-10-12T16:39:30.692Z,30.63
2023-10-12T16:42:00.765Z,30.62
2023-10-12T16:44:31.764Z,30.64
2023-10-12T16:47:02.300Z,30.63
2023-10-12T16:49:33.287Z,30.63
2023-10-12T16:52:04.559Z,30.66
2023-10-12T16:54:34.989Z,30.64
2023-10-12T16:57:05.519Z,30.61
2023-10-12T16:59:36.584Z,30.63
2023-10-12T17:02:06.631Z,30.61
2023-10-12T17:05:01.431Z,30.64
2023-10-12T17:07:32.498Z,30.61
2023-10-12T17:10:02.848Z,30.62
2023-10-12T17:12:38.230Z,30.58
2023-10-12T17:15:10.373Z,30.57
2023-10-12T17:17:40.266Z,30.62
2023-10-12T17:20:14.305Z,30.57
2023-10-12T17:22:44.703Z,30.62
2023-10-12T17:25:14.966Z,30.53
2023-10-12T17:27:45.090Z,30.45
2023-10-12T17:30:19.022Z,30.46
2023-10-12T17:32:49.658Z,30.47
2023-10-12T17:35:20.057Z,30.41
2023-10-12T17:37:52.266Z,30.41
2023-10-12T17:40:26.084Z,30.45
2023-10-12T17:42:56.921Z,30.40
2023-10-12T17:45:27.337Z,30.34
2023-10-12T17:47:57.489Z,30.37
2023-10-12T17:50:30.449Z,30.35
2023-10-12T17:53:02.708Z,30.34
2023-10-12T17:55:38.692Z,30.32
2023-10-12T17:58:10.393Z,30.30
2023-10-12T18:00:41.816Z,30.29
2023-10-12T18:03:13.186Z,30.24
2023-10-12T18:05:45.749Z,30.24
2023-10-12T18:08:15.567Z,30.27
2023-10-12T18:10:47.619Z,30.22
2023-10-12T18:13:19.031Z,30.15
2023-10-12T18:15:50.098Z,30.14
2023-10-12T18:18:20.064Z,30.15
2023-10-12T18:20:50.162Z,30.14
2023-10-12T18:23:20.148Z,30.12
2023-10-12T18:25:50.061Z,30.07
2023-10-12T18:28:20.169Z,30.12
2023-10-12T18:31:07.726Z,30.14
2023-10-12T18:33:41.863Z,30.15
2023-10-12T18:36:14.846Z,30.11
2023-10-12T18:38:47.610Z,30.14
2023-10-12T18:41:18.234Z,30.14
2023-10-12T18:43:53.657Z,30.11
2023-10-12T18:46:26.145Z,30.05
2023-10-12T18:48:56.405Z,30.12
2023-10-12T18:51:28.235Z,30.14
2023-10-12T18:54:03.689Z,30.13
2023-10-12T18:56:34.608Z,30.13
2023-10-12T18:59:09.418Z,30.16
2023-10-12T19:01:39.556Z,30.11
2023-10-12T19:04:09.719Z,30.15
2023-10-12T19:06:40.713Z,30.14
2023-10-12T19:09:11.702Z,30.16
2023-10-12T19:11:44.166Z,30.19
2023-10-12T19:14:14.149Z,30.13
2023-10-12T19:16:44.621Z,30.17
2023-10-12T19:19:15.160Z,30.17
2023-10-12T19:21:45.073Z,30.13
2023-10-12T19:24:18.956Z,30.11
2023-10-12T19:26:48.862Z,30.14
2023-10-12T19:29:19.299Z,30.09
2023-10-12T19:31:49.749Z,30.04
2023-10-12T19:34:19.906Z,30.02
2023-10-12T19:36:50.112Z,30.04
2023-10-12T19:39:20.203Z,30.07
2023-10-12T19:41:51.344Z,30.03
2023-10-12T19:44:22.232Z,30.04
2023-10-12T19:46:52.736Z,30.04
2023-10-12T19:49:23.050Z,30.07
2023-10-12T19:51:54.887Z,29.99
2023-10-12T19:54:24.836Z,30.05
2023-10-12T19:56:58.081Z,30.00
2023-10-12T19:59:30.953Z,29.97
2023-10-12T20:02:13.654Z,29.96
2023-10-12T20:04:44.250Z,30.00
2023-10-12T20:07:14.088Z,29.99
2023-10-12T20:09:44.022Z,29.98
2023-10-12T20:12:14.904Z,29.96
2023-10-12T20:14:46.182Z,29.94
2023-10-12T20:17:16.182Z,29.96
2023-10-12T20:19:48.209Z,29.96
2023-10-12T20:22:18.406Z,29.95
2023-10-12T20:24:49.264Z,29.91
2023-10-12T20:27:22.413Z,29.93
2023-10-12T20:29:53.104Z,29.93
2023-10-12T20:32:23.233Z,29.91
2023-10-12T20:34:53.183Z,29.91
2023-10-12T20:37:24.375Z,29.88
2023-10-12T20:39:54.523Z,29.92
2023-10-12T20:42:24.283Z,29.92
2023-10-12T20:44:54.565Z,29.88
2023-10-12T20:47:27.329Z,29.89
2023-10-12T20:49:58.528Z,29.89
2023-10-12T20:52:33.063Z,29.91
2023-10-12T20:55:06.871Z,29.91
2023-10-12T20:57:39.277Z,29.89
2023-10-12T21:00:15.564Z,29.86
2023-10-12T21:02:48.696Z,29.83
2023-10-12T21:05:34.339Z,29.86
2023-10-12T21:08:09.021Z,29.85
2023-10-12T21:10:51.899Z,29.84
2023-10-12T21:13:22.683Z,29.83
2023-10-12T21:15:56.255Z,29.86
2023-10-12T21:18:45.001Z,29.82
2023-10-12T21:21:27.185Z,29.82
2023-10-12T21:24:33.022Z,29.82
2023-10-12T21:27:08.589Z,29.82
2023-10-12T21:29:39.626Z,29.77
2023-10-12T21:32:11.468Z,29.80
2023-10-12T21:34:42.040Z,29.82
2023-10-12T21:37:14.701Z,29.80
2023-10-12T21:39:49.097Z,29.80
2023-10-12T21:42:20.894Z,29.79
2023-10-12T21:44:50.762Z,29.78
2023-10-12T21:47:22.682Z,29.77
2023-10-12T21:49:52.526Z,29.74
2023-10-12T21:52:24.855Z,29.71
2023-10-12T21:54:54.733Z,29.72
2023-10-12T21:57:26.061Z,29.69
2023-10-12T21:59:55.942Z,29.71
2023-10-12T22:02:26.966Z,29.71
2023-10-12T22:04:58.106Z,29.70
2023-10-12T22:07:30.074Z,29.67
2023-10-12T22:10:06.052Z,29.69
2023-10-12T22:12:37.696Z,29.70
2023-10-12T22:15:21.470Z,29.68
2023-10-12T22:18:02.619Z,29.69
2023-10-12T22:20:33.449Z,29.72
2023-10-12T22:23:03.400Z,29.68
2023-10-12T22:25:34.208Z,29.72
2023-10-12T22:28:04.165Z,29.64
2023-10-12T22:30:34.372Z,29.67
2023-10-12T22:33:04.634Z,29.67
2023-10-12T22:38:05.564Z,29.72
2023-10-12T22:40:38.811Z,29.69
2023-10-12T22:43:08.688Z,29.65
2023-10-12T22:45:39.223Z,29.68
2023-10-12T22:48:09.680Z,29.65
2023-10-12T22:50:39.544Z,29.68
2023-10-12T22:53:11.923Z,29.60
2023-10-12T22:55:41.809Z,29.66
2023-10-12T22:58:12.584Z,29.78
2023-10-12T23:00:42.584Z,29.72
2023-10-12T23:03:14.649Z,29.71
2023-10-12T23:05:47.099Z,29.77
2023-10-12T23:08:18.441Z,29.78
2023-10-12T23:10:50.013Z,29.84
2023-10-12T23:13:19.855Z,29.89
2023-10-12T23:15:50.861Z,29.97
2023-10-12T23:18:24.098Z,30.02
2023-10-12T23:21:07.074Z,29.94
2023-10-12T23:23:39.040Z,29.97
2023-10-12T23:26:09.810Z,30.00
2023-10-12T23:28:41.038Z,30.02
2023-10-12T23:31:18.136Z,30.15
2023-10-12T23:33:53.734Z,30.14
2023-10-12T23:36:24.203Z,30.22
2023-10-12T23:39:03.098Z,30.17
2023-10-12T23:41:35.696Z,30.29
2023-10-12T23:44:22.082Z,30.34
2023-10-12T23:46:55.277Z,30.31
2023-10-12T23:49:40.665Z,30.41
2023-10-12T23:52:29.581Z,30.43
2023-10-12T23:54:59.387Z,30.46
2023-10-12T23:57:29.414Z,30.53
